createdAt,value
2016-12-19T00:00:12.189Z,0
2016-12-19T00:00:42.749Z,0
2016-12-19T00:01:13.328Z,0
2016-12-19T00:01:43.929Z,0
2016-12-19T00:02:14.564Z,0
2016-12-19T00:02:45.176Z,0
2016-12-19T00:03:15.769Z,0
2016-12-19T00:03:46.333Z,0
2016-12-19T00:04:16.879Z,0
2016-12-19T00:04:47.449Z,0
2016-12-19T00:05:18.026Z,0
2016-12-19T00:05:48.588Z,0
2016-12-19T00:06:19.152Z,0
2016-12-19T00:06:49.723Z,0
2016-12-19T00:07:20.366Z,0
2016-12-19T00:07:50.950Z,0
2016-12-19T00:08:21.525Z,0
2016-12-19T00:08:52.099Z,0
2016-12-19T00:09:22.669Z,0
2016-12-19T00:09:53.237Z,0
2016-12-19T00:10:23.819Z,0
2016-12-19T00:10:54.394Z,0
2016-12-19T00:11:24.979Z,0
2016-12-19T00:11:55.543Z,0
2016-12-19T00:12:26.102Z,0
2016-12-19T00:12:56.659Z,0
2016-12-19T00:13:27.232Z,0
2016-12-19T00:13:57.818Z,0
2016-12-19T00:14:28.462Z,0
2016-12-19T00:14:59.039Z,0
2016-12-19T00:15:29.602Z,0
2016-12-19T00:16:00.201Z,0
2016-12-19T00:16:30.768Z,0
2016-12-19T00:17:01.381Z,0
2016-12-19T00:17:31.952Z,0
2016-12-19T00:18:02.517Z,0
2016-12-19T00:18:33.074Z,0
2016-12-19T00:19:03.663Z,0
2016-12-19T00:19:34.230Z,0
2016-12-19T00:20:04.846Z,0
2016-12-19T00:20:35.423Z,0
2016-12-19T00:21:05.999Z,0
2016-12-19T00:21:36.600Z,0
2016-12-19T00:22:07.180Z,0
2016-12-19T00:22:37.748Z,0
2016-12-19T00:23:08.302Z,0
2016-12-19T00:23:38.887Z,0
2016-12-19T00:24:09.490Z,0
2016-12-19T00:24:40.056Z,0
2016-12-19T00:25:10.621Z,0
2016-12-19T00:25:41.181Z,0
2016-12-19T00:26:11.743Z,0
2016-12-19T00:26:42.355Z,0
2016-12-19T00:27:12.956Z,0
2016-12-19T00:27:43.554Z,0
2016-12-19T00:28:14.126Z,0
2016-12-19T00:28:44.777Z,0
2016-12-19T00:29:15.341Z,0
2016-12-19T00:29:45.912Z,0
2016-12-19T00:30:16.448Z,0
2016-12-19T00:30:47.019Z,0
2016-12-19T00:31:17.616Z,0
2016-12-19T00:31:48.241Z,0
2016-12-19T00:32:18.856Z,0
2016-12-19T00:32:49.436Z,0
2016-12-19T00:33:20.029Z,0
2016-12-19T00:33:50.599Z,0
2016-12-19T00:34:21.154Z,0
2016-12-19T00:34:51.708Z,0
2016-12-19T00:35:22.259Z,0
2016-12-19T00:35:52.814Z,0
2016-12-19T00:36:23.404Z,0
2016-12-19T00:36:53.946Z,0
2016-12-19T00:37:24.496Z,0
2016-12-19T00:37:55.069Z,0
2016-12-19T00:38:25.640Z,0
2016-12-19T00:38:56.357Z,0
2016-12-19T00:39:26.932Z,0
2016-12-19T00:39:57.488Z,0
2016-12-19T00:40:28.080Z,0
2016-12-19T00:40:58.644Z,0
2016-12-19T00:41:29.269Z,0
2016-12-19T00:41:59.819Z,0
2016-12-19T00:42:30.386Z,0
2016-12-19T00:43:00.949Z,0
2016-12-19T00:43:31.544Z,0
2016-12-19T00:44:02.111Z,0
2016-12-19T00:44:32.724Z,0
2016-12-19T00:45:03.300Z,0
2016-12-19T00:45:33.864Z,0
2016-12-19T00:46:04.451Z,0
2016-12-19T00:46:35.023Z,0
2016-12-19T00:47:05.608Z,0
2016-12-19T00:47:36.177Z,0
2016-12-19T00:48:06.764Z,0
2016-12-19T00:48:37.372Z,0
2016-12-19T00:49:07.935Z,0
2016-12-19T00:49:38.507Z,0
2016-12-19T00:50:09.103Z,0
2016-12-19T00:50:39.682Z,0
2016-12-19T00:51:10.282Z,0
2016-12-19T00:51:40.842Z,0
2016-12-19T00:52:11.411Z,0
2016-12-19T00:52:41.957Z,0
2016-12-19T00:53:12.523Z,0
2016-12-19T00:53:43.096Z,0
2016-12-19T00:54:13.781Z,0
2016-12-19T00:54:44.399Z,0
2016-12-19T00:55:14.985Z,0
2016-12-19T00:55:45.551Z,0
2016-12-19T00:56:16.100Z,0
2016-12-19T00:56:46.669Z,0
2016-12-19T00:57:17.260Z,0
2016-12-19T00:57:47.833Z,0
2016-12-19T00:58:18.426Z,0
2016-12-19T00:58:48.997Z,0
2016-12-19T00:59:19.565Z,0
2016-12-19T00:59:50.129Z,0
2016-12-19T01:00:20.712Z,0
2016-12-19T01:00:51.272Z,0
2016-12-19T01:01:21.837Z,0
2016-12-19T01:01:52.387Z,0
2016-12-19T01:02:22.967Z,0
2016-12-19T01:02:53.610Z,0
2016-12-19T01:03:24.197Z,0
2016-12-19T01:03:54.749Z,0
2016-12-19T01:04:25.334Z,0
2016-12-19T01:04:55.911Z,0
2016-12-19T01:05:26.517Z,0
2016-12-19T01:05:57.084Z,0
2016-12-19T01:06:27.639Z,0
2016-12-19T01:06:58.218Z,0
2016-12-19T01:07:28.806Z,0
2016-12-19T01:07:59.385Z,0
2016-12-19T01:08:29.960Z,0
2016-12-19T01:09:00.544Z,0
2016-12-19T01:09:31.178Z,0
2016-12-19T01:10:01.760Z,0
2016-12-19T01:10:32.352Z,0
2016-12-19T01:11:02.905Z,0
2016-12-19T01:11:33.467Z,0
2016-12-19T01:12:04.007Z,0
2016-12-19T01:12:34.644Z,0
2016-12-19T01:13:05.216Z,0
2016-12-19T01:13:35.778Z,0
2016-12-19T01:14:06.356Z,0
2016-12-19T01:14:36.903Z,0
2016-12-19T01:15:07.521Z,0
2016-12-19T01:15:38.079Z,0
2016-12-19T01:16:08.639Z,0
2016-12-19T01:16:39.204Z,0
2016-12-19T01:17:09.799Z,0
2016-12-19T01:17:40.490Z,0
2016-12-19T01:18:11.058Z,0
2016-12-19T01:18:41.618Z,0
2016-12-19T01:19:12.210Z,0
2016-12-19T01:19:42.762Z,0
2016-12-19T01:20:13.330Z,0
2016-12-19T01:20:43.890Z,0
2016-12-19T01:21:14.491Z,0
2016-12-19T01:21:45.076Z,0
2016-12-19T01:22:15.648Z,0
2016-12-19T01:22:46.215Z,0
2016-12-19T01:23:16.858Z,0
2016-12-19T01:23:47.419Z,0
2016-12-19T01:24:17.986Z,0
2016-12-19T01:24:48.563Z,0
2016-12-19T01:25:19.149Z,0
2016-12-19T01:25:49.719Z,0
2016-12-19T01:26:20.307Z,0
2016-12-19T01:26:50.878Z,0
2016-12-19T01:27:21.442Z,0
2016-12-19T01:27:52.013Z,0
2016-12-19T01:28:22.604Z,0
2016-12-19T01:28:53.172Z,0
2016-12-19T01:29:23.758Z,0
2016-12-19T01:29:54.324Z,0
2016-12-19T01:30:24.908Z,0
2016-12-19T01:30:55.464Z,0
2016-12-19T01:31:26.036Z,0
2016-12-19T01:31:56.589Z,0
2016-12-19T01:32:27.151Z,0
2016-12-19T01:32:57.706Z,0
2016-12-19T01:33:28.418Z,0
2016-12-19T01:33:58.966Z,0
2016-12-19T01:34:29.530Z,0
2016-12-19T01:35:00.111Z,0
2016-12-19T01:35:30.669Z,0
2016-12-19T01:36:01.350Z,0
2016-12-19T01:36:31.943Z,0
2016-12-19T01:37:02.532Z,0
2016-12-19T01:37:33.112Z,0
2016-12-19T01:38:03.687Z,0
2016-12-19T01:38:34.258Z,0
2016-12-19T01:39:04.890Z,0
2016-12-19T01:39:35.453Z,0
2016-12-19T01:40:05.999Z,0
2016-12-19T01:40:36.657Z,0
2016-12-19T01:41:07.247Z,0
2016-12-19T01:41:37.818Z,0
2016-12-19T01:42:08.378Z,0
2016-12-19T01:42:38.939Z,0
2016-12-19T01:43:09.541Z,0
2016-12-19T01:43:40.119Z,0
2016-12-19T01:44:10.700Z,0
2016-12-19T01:44:41.253Z,0
2016-12-19T01:45:11.820Z,0
2016-12-19T01:45:42.385Z,0
2016-12-19T01:46:12.948Z,0
2016-12-19T01:46:43.518Z,0
2016-12-19T01:47:14.088Z,0
2016-12-19T01:47:44.720Z,0
2016-12-19T01:48:15.294Z,0
2016-12-19T01:48:45.866Z,0
2016-12-19T01:49:16.543Z,0
2016-12-19T01:49:47.083Z,0
2016-12-19T01:50:17.662Z,0
2016-12-19T01:50:48.277Z,0
2016-12-19T01:51:18.852Z,0
2016-12-19T01:51:49.449Z,0
2016-12-19T01:52:20.011Z,0
2016-12-19T01:52:50.572Z,0
2016-12-19T01:53:21.147Z,0
2016-12-19T01:53:51.703Z,0
2016-12-19T01:54:22.290Z,0
2016-12-19T01:54:52.868Z,0
2016-12-19T01:55:23.449Z,0
2016-12-19T01:55:54.030Z,0
2016-12-19T01:56:24.608Z,0
2016-12-19T01:56:55.234Z,0
2016-12-19T01:57:25.790Z,0
2016-12-19T01:57:56.361Z,0
2016-12-19T01:58:26.927Z,0
2016-12-19T01:58:57.497Z,0
2016-12-19T01:59:28.060Z,0
2016-12-19T01:59:58.633Z,0
2016-12-19T02:00:29.219Z,0
2016-12-19T02:00:59.806Z,0
2016-12-19T02:01:30.366Z,0
2016-12-19T02:02:00.938Z,0
2016-12-19T02:02:31.525Z,0
2016-12-19T02:03:02.088Z,0
2016-12-19T02:03:32.676Z,0
2016-12-19T02:04:03.254Z,0
2016-12-19T02:04:33.828Z,0
2016-12-19T02:05:04.412Z,0
2016-12-19T02:05:34.986Z,0
2016-12-19T02:06:05.573Z,0
2016-12-19T02:06:36.165Z,0
2016-12-19T02:07:06.738Z,0
2016-12-19T02:07:37.297Z,0
2016-12-19T02:08:07.913Z,0
2016-12-19T02:08:38.500Z,0
2016-12-19T02:09:09.073Z,0
2016-12-19T02:09:39.634Z,0
2016-12-19T02:10:10.196Z,0
2016-12-19T02:10:40.867Z,0
2016-12-19T02:11:11.411Z,0
2016-12-19T02:11:41.973Z,0
2016-12-19T02:12:12.540Z,0
2016-12-19T02:12:43.087Z,0
2016-12-19T02:13:13.667Z,0
2016-12-19T02:13:44.249Z,0
2016-12-19T02:14:14.796Z,0
2016-12-19T02:14:45.433Z,0
2016-12-19T02:15:16.007Z,0
2016-12-19T02:15:46.593Z,0
2016-12-19T02:16:17.159Z,0
2016-12-19T02:16:47.754Z,0
2016-12-19T02:17:18.367Z,0
2016-12-19T02:17:48.898Z,0
2016-12-19T02:18:19.470Z,0
2016-12-19T02:18:50.050Z,0
2016-12-19T02:19:20.660Z,0
2016-12-19T02:19:51.234Z,0
2016-12-19T02:20:21.809Z,0
2016-12-19T02:20:52.457Z,0
2016-12-19T02:21:23.030Z,0
2016-12-19T02:21:53.594Z,0
2016-12-19T02:22:24.169Z,0
2016-12-19T02:22:54.737Z,0
2016-12-19T02:23:25.383Z,0
2016-12-19T02:23:55.948Z,0
2016-12-19T02:24:26.516Z,0
2016-12-19T02:24:57.077Z,0
2016-12-19T02:25:27.660Z,0
2016-12-19T02:25:58.228Z,0
2016-12-19T02:26:28.822Z,0
2016-12-19T02:26:59.401Z,0
2016-12-19T02:27:29.957Z,0
2016-12-19T02:28:00.530Z,0
2016-12-19T02:28:31.077Z,0
2016-12-19T02:29:01.667Z,0
2016-12-19T02:29:32.223Z,0
2016-12-19T02:30:02.799Z,0
2016-12-19T02:30:33.340Z,0
2016-12-19T02:31:03.969Z,0
2016-12-19T02:31:34.602Z,0
2016-12-19T02:32:05.196Z,0
2016-12-19T02:32:35.791Z,0
2016-12-19T02:33:06.342Z,0
2016-12-19T02:33:36.903Z,0
2016-12-19T02:34:07.489Z,0
2016-12-19T02:34:38.033Z,0
2016-12-19T02:35:08.670Z,0
2016-12-19T02:35:39.234Z,0
2016-12-19T02:36:09.832Z,0
2016-12-19T02:36:40.449Z,0
2016-12-19T02:37:11.042Z,0
2016-12-19T02:37:41.616Z,0
2016-12-19T02:38:12.188Z,0
2016-12-19T02:38:42.759Z,0
2016-12-19T02:39:13.318Z,0
2016-12-19T02:39:43.894Z,0
2016-12-19T02:40:14.451Z,0
2016-12-19T02:40:45.017Z,0
2016-12-19T02:41:15.588Z,0
2016-12-19T02:41:46.160Z,0
2016-12-19T02:42:16.749Z,0
2016-12-19T02:42:47.309Z,0
2016-12-19T02:43:17.886Z,0
2016-12-19T02:43:48.539Z,0
2016-12-19T02:44:19.103Z,0
2016-12-19T02:44:49.664Z,0
2016-12-19T02:45:20.288Z,0
2016-12-19T02:45:50.851Z,0
2016-12-19T02:46:21.425Z,0
2016-12-19T02:46:52.044Z,0
2016-12-19T02:47:22.640Z,0
2016-12-19T02:47:53.196Z,0
2016-12-19T02:48:23.771Z,0
2016-12-19T02:48:54.337Z,0
2016-12-19T02:49:24.921Z,0
2016-12-19T02:49:55.473Z,0
2016-12-19T02:50:26.029Z,0
2016-12-19T02:50:56.598Z,0
2016-12-19T02:51:27.160Z,0
2016-12-19T02:51:57.795Z,0
2016-12-19T02:52:28.358Z,0
2016-12-19T02:52:58.918Z,0
2016-12-19T02:53:29.547Z,0
2016-12-19T02:54:00.160Z,0
2016-12-19T02:54:30.719Z,0
2016-12-19T02:55:01.314Z,0
2016-12-19T02:55:31.899Z,0
2016-12-19T02:56:02.468Z,0
2016-12-19T02:56:33.051Z,0
2016-12-19T02:57:03.640Z,0
2016-12-19T02:57:34.205Z,0
2016-12-19T02:58:04.787Z,0
2016-12-19T02:58:35.355Z,0
2016-12-19T02:59:05.950Z,0
2016-12-19T02:59:36.521Z,0
2016-12-19T03:00:07.073Z,0
2016-12-19T03:00:37.630Z,0
2016-12-19T03:01:08.238Z,0
2016-12-19T03:01:38.810Z,0
2016-12-19T03:02:09.379Z,0
2016-12-19T03:02:39.964Z,0
2016-12-19T03:03:10.558Z,0
2016-12-19T03:03:41.152Z,0
2016-12-19T03:04:11.726Z,0
2016-12-19T03:04:42.289Z,0
2016-12-19T03:05:12.883Z,0
2016-12-19T03:05:43.470Z,0
2016-12-19T03:06:13.988Z,0
2016-12-19T03:06:44.550Z,0
2016-12-19T03:07:15.113Z,0
2016-12-19T03:07:45.787Z,0
2016-12-19T03:08:16.355Z,0
2016-12-19T03:08:46.918Z,0
2016-12-19T03:09:17.484Z,0
2016-12-19T03:09:48.049Z,0
2016-12-19T03:10:18.661Z,0
2016-12-19T03:10:49.336Z,0
2016-12-19T03:11:19.913Z,0
2016-12-19T03:11:50.495Z,0
2016-12-19T03:12:21.061Z,0
2016-12-19T03:12:51.638Z,0
2016-12-19T03:13:22.206Z,0
2016-12-19T03:13:52.777Z,0
2016-12-19T03:14:23.331Z,0
2016-12-19T03:14:53.913Z,0
2016-12-19T03:15:24.453Z,0
2016-12-19T03:15:55.012Z,0
2016-12-19T03:16:25.641Z,0
2016-12-19T03:16:56.200Z,0
2016-12-19T03:17:26.774Z,0
2016-12-19T03:17:57.433Z,0
2016-12-19T03:18:28.025Z,0
2016-12-19T03:18:58.593Z,0
2016-12-19T03:19:29.148Z,0
2016-12-19T03:19:59.714Z,0
2016-12-19T03:20:30.312Z,0
2016-12-19T03:21:00.934Z,0
2016-12-19T03:21:31.504Z,0
2016-12-19T03:22:02.043Z,0
2016-12-19T03:22:32.599Z,0
2016-12-19T03:23:03.174Z,0
2016-12-19T03:23:33.775Z,0
2016-12-19T03:24:04.430Z,0
2016-12-19T03:24:35.027Z,0
2016-12-19T03:25:05.561Z,0
2016-12-19T03:25:36.108Z,0
2016-12-19T03:26:06.692Z,0
2016-12-19T03:26:37.319Z,0
2016-12-19T03:27:07.908Z,0
2016-12-19T03:27:38.494Z,0
2016-12-19T03:28:09.047Z,0
2016-12-19T03:28:39.609Z,0
2016-12-19T03:29:10.167Z,0
2016-12-19T03:29:40.738Z,0
2016-12-19T03:30:11.310Z,0
2016-12-19T03:30:41.878Z,0
2016-12-19T03:31:12.462Z,0
2016-12-19T03:31:43.020Z,0
2016-12-19T03:32:13.662Z,0
2016-12-19T03:32:44.217Z,0
2016-12-19T03:33:14.774Z,0
2016-12-19T03:33:45.428Z,0
2016-12-19T03:34:15.995Z,0
2016-12-19T03:34:46.548Z,0
2016-12-19T03:35:17.160Z,0
2016-12-19T03:35:47.732Z,0
2016-12-19T03:36:18.306Z,0
2016-12-19T03:36:48.913Z,0
2016-12-19T03:37:19.478Z,0
2016-12-19T03:37:50.030Z,0
2016-12-19T03:38:20.602Z,0
2016-12-19T03:38:51.164Z,0
2016-12-19T03:39:21.716Z,0
2016-12-19T03:39:52.336Z,0
2016-12-19T03:40:22.895Z,0
2016-12-19T03:40:53.462Z,0
2016-12-19T03:41:24.017Z,0
2016-12-19T03:41:54.620Z,0
2016-12-19T03:42:25.203Z,0
2016-12-19T03:42:55.783Z,0
2016-12-19T03:43:26.345Z,0
2016-12-19T03:43:56.910Z,0
2016-12-19T03:44:27.478Z,0
2016-12-19T03:44:58.068Z,0
2016-12-19T03:45:28.678Z,0
2016-12-19T03:45:59.250Z,0
2016-12-19T03:46:29.822Z,0
2016-12-19T03:47:00.419Z,0
2016-12-19T03:47:30.971Z,0
2016-12-19T03:48:01.548Z,0
2016-12-19T03:48:32.131Z,0
2016-12-19T03:49:02.683Z,0
2016-12-19T03:49:33.279Z,0
2016-12-19T03:50:04.009Z,0
2016-12-19T03:50:34.600Z,0
2016-12-19T03:51:05.168Z,0
2016-12-19T03:51:35.745Z,0
2016-12-19T03:52:06.312Z,0
2016-12-19T03:52:36.931Z,0
2016-12-19T03:53:07.507Z,0
2016-12-19T03:53:38.079Z,0
2016-12-19T03:54:08.649Z,0
2016-12-19T03:54:39.204Z,0
2016-12-19T03:55:09.760Z,0
2016-12-19T03:55:40.319Z,0
2016-12-19T03:56:10.899Z,0
2016-12-19T03:56:41.511Z,0
2016-12-19T03:57:12.081Z,0
2016-12-19T03:57:42.738Z,0
2016-12-19T03:58:13.302Z,0
2016-12-19T03:58:43.889Z,0
2016-12-19T03:59:14.457Z,0
2016-12-19T03:59:45.024Z,0
2016-12-19T04:00:15.611Z,0
2016-12-19T04:00:46.183Z,0
2016-12-19T04:01:16.758Z,0
2016-12-19T04:01:47.337Z,0
2016-12-19T04:02:17.923Z,0
2016-12-19T06:03:05.436Z,44
2016-12-19T06:03:36.013Z,0
2016-12-19T06:04:06.641Z,0
2016-12-19T06:04:37.256Z,0
2016-12-19T06:05:07.823Z,0
2016-12-19T06:05:38.417Z,0
2016-12-19T06:06:08.976Z,0
2016-12-19T06:06:39.535Z,0
2016-12-19T06:07:10.108Z,0
2016-12-19T06:07:40.691Z,0
2016-12-19T06:08:11.254Z,0
2016-12-19T06:08:41.795Z,0
2016-12-19T06:09:12.383Z,0
2016-12-19T06:09:42.963Z,0
2016-12-19T06:10:13.607Z,0
2016-12-19T06:10:44.170Z,0
2016-12-19T06:11:14.734Z,0
2016-12-19T06:11:45.324Z,0
2016-12-19T06:12:15.905Z,0
2016-12-19T06:12:46.444Z,0
2016-12-19T06:13:17.065Z,0
2016-12-19T06:13:47.638Z,0
2016-12-19T06:14:18.191Z,0
2016-12-19T06:14:48.855Z,0
2016-12-19T06:15:19.432Z,0
2016-12-19T06:15:49.996Z,0
2016-12-19T06:16:20.547Z,0
2016-12-19T06:16:51.094Z,0
2016-12-19T06:17:21.783Z,0
2016-12-19T06:17:52.364Z,0
2016-12-19T06:18:22.928Z,48
2016-12-19T06:18:53.542Z,48
2016-12-19T06:19:24.159Z,52
2016-12-19T06:19:54.746Z,52
2016-12-19T06:20:25.335Z,48
2016-12-19T06:20:55.915Z,48
2016-12-19T06:21:26.466Z,48
2016-12-19T06:21:57.017Z,48
2016-12-19T06:22:27.585Z,48
2016-12-19T06:22:58.138Z,52
2016-12-19T06:23:28.703Z,48
2016-12-19T06:23:59.314Z,48
2016-12-19T06:24:29.920Z,52
2016-12-19T06:25:00.498Z,52
2016-12-19T06:25:31.087Z,48
2016-12-19T06:26:01.628Z,48
2016-12-19T06:26:32.200Z,48
2016-12-19T06:27:02.805Z,48
2016-12-19T06:27:33.375Z,48
2016-12-19T06:28:03.949Z,48
2016-12-19T06:28:34.521Z,48
2016-12-19T06:29:05.103Z,48
2016-12-19T06:29:35.664Z,48
2016-12-19T06:30:06.236Z,48
2016-12-19T06:30:36.845Z,48
2016-12-19T06:31:07.441Z,48
2016-12-19T06:31:37.984Z,48
2016-12-19T06:32:08.644Z,48
2016-12-19T06:32:39.206Z,48
2016-12-19T06:33:09.784Z,48
2016-12-19T06:33:40.371Z,48
2016-12-19T06:34:10.927Z,48
2016-12-19T06:34:41.490Z,48
2016-12-19T06:35:12.044Z,44
2016-12-19T06:35:42.636Z,48
2016-12-19T06:36:13.252Z,48
2016-12-19T06:36:43.826Z,44
2016-12-19T06:37:14.405Z,48
2016-12-19T06:37:45.031Z,48
2016-12-19T06:38:15.584Z,44
2016-12-19T06:38:46.141Z,44
2016-12-19T06:39:16.754Z,48
2016-12-19T06:39:47.368Z,44
2016-12-19T06:40:17.943Z,44
2016-12-19T06:40:48.511Z,44
2016-12-19T06:41:19.087Z,48
2016-12-19T06:41:49.653Z,48
2016-12-19T06:42:20.218Z,44
2016-12-19T06:42:50.805Z,48
2016-12-19T06:43:21.358Z,44
2016-12-19T06:43:51.914Z,48
2016-12-19T06:44:22.495Z,48
2016-12-19T06:44:53.050Z,48
2016-12-19T06:45:23.592Z,48
2016-12-19T06:45:54.141Z,48
2016-12-19T06:46:24.783Z,48
2016-12-19T06:46:55.353Z,48
2016-12-19T06:47:25.927Z,48
2016-12-19T06:47:56.500Z,48
2016-12-19T06:48:27.076Z,44
2016-12-19T06:48:57.709Z,48
2016-12-19T06:49:28.266Z,48
2016-12-19T06:49:58.827Z,48
2016-12-19T06:50:29.403Z,48
2016-12-19T06:51:00.011Z,48
2016-12-19T06:51:30.578Z,44
2016-12-19T06:52:01.147Z,48
2016-12-19T06:52:31.702Z,48
2016-12-19T06:53:02.336Z,44
2016-12-19T06:53:32.904Z,44
2016-12-19T06:54:03.509Z,48
2016-12-19T06:54:34.089Z,44
2016-12-19T06:55:04.663Z,44
2016-12-19T06:55:35.234Z,48
2016-12-19T06:56:05.917Z,44
2016-12-19T06:56:36.480Z,44
2016-12-19T06:57:07.074Z,48
2016-12-19T06:57:37.650Z,48
2016-12-19T06:58:08.226Z,48
2016-12-19T06:58:38.782Z,48
2016-12-19T06:59:09.396Z,48
2016-12-19T06:59:39.957Z,48
2016-12-19T07:00:10.524Z,48
2016-12-19T07:00:41.076Z,48
2016-12-19T07:01:11.618Z,44
2016-12-19T07:01:42.171Z,44
2016-12-19T07:02:12.825Z,44
2016-12-19T07:02:43.385Z,44
2016-12-19T07:03:13.944Z,0
2016-12-19T07:03:44.543Z,0
2016-12-19T07:04:15.130Z,0
2016-12-19T07:04:45.729Z,0
2016-12-19T07:05:16.315Z,0
2016-12-19T07:05:46.852Z,0
2016-12-19T07:06:17.501Z,0
2016-12-19T07:06:48.066Z,0
2016-12-19T07:07:18.634Z,0
2016-12-19T07:07:49.205Z,0
2016-12-19T07:08:19.785Z,0
2016-12-19T07:08:50.356Z,0
2016-12-19T07:09:21.002Z,0
2016-12-19T07:09:51.577Z,0
2016-12-19T07:10:22.113Z,0
2016-12-19T07:10:52.679Z,0
2016-12-19T07:11:23.252Z,0
2016-12-19T07:11:53.875Z,0
2016-12-19T07:12:24.444Z,0
2016-12-19T07:12:55.013Z,0
2016-12-19T07:13:25.595Z,4
2016-12-19T07:13:56.158Z,4
2016-12-19T07:14:26.809Z,4
2016-12-19T07:14:57.392Z,4
2016-12-19T07:15:27.934Z,4
2016-12-19T07:15:58.511Z,0
2016-12-19T07:16:29.102Z,0
2016-12-19T07:16:59.675Z,0
2016-12-19T07:17:30.239Z,4
2016-12-19T07:18:00.822Z,4
2016-12-19T07:18:31.358Z,4
2016-12-19T07:19:01.930Z,0
2016-12-19T07:19:32.595Z,4
2016-12-19T07:20:03.153Z,4
2016-12-19T07:20:33.729Z,4
2016-12-19T07:21:04.313Z,0
2016-12-19T07:21:34.870Z,4
2016-12-19T07:22:05.454Z,4
2016-12-19T07:22:36.028Z,4
2016-12-19T07:23:06.612Z,4
2016-12-19T07:23:37.169Z,4
2016-12-19T07:24:07.737Z,4
2016-12-19T07:24:38.310Z,8
2016-12-19T07:25:09.021Z,8
2016-12-19T07:25:39.565Z,4
2016-12-19T07:26:10.129Z,8
2016-12-19T07:26:40.704Z,8
2016-12-19T07:27:11.261Z,8
2016-12-19T07:27:41.884Z,8
2016-12-19T07:28:12.437Z,8
2016-12-19T07:28:43.014Z,8
2016-12-19T07:29:13.576Z,8
2016-12-19T07:29:44.147Z,12
2016-12-19T07:30:14.763Z,12
2016-12-19T07:30:45.344Z,12
2016-12-19T07:31:15.925Z,12
2016-12-19T07:31:46.507Z,12
2016-12-19T07:32:17.075Z,12
2016-12-19T07:32:47.638Z,12
2016-12-19T07:33:18.195Z,12
2016-12-19T07:33:48.753Z,12
2016-12-19T07:34:19.328Z,12
2016-12-19T07:34:49.925Z,12
2016-12-19T07:35:20.599Z,16
2016-12-19T07:35:51.165Z,16
2016-12-19T07:36:21.725Z,16
2016-12-19T07:36:52.286Z,16
2016-12-19T07:37:22.856Z,16
2016-12-19T07:37:53.436Z,16
2016-12-19T07:38:24.012Z,16
2016-12-19T07:38:54.542Z,16
2016-12-19T07:39:25.162Z,16
2016-12-19T07:39:55.738Z,16
2016-12-19T07:40:26.307Z,20
2016-12-19T07:40:56.894Z,20
2016-12-19T07:41:27.473Z,16
2016-12-19T07:41:58.032Z,20
2016-12-19T07:42:28.699Z,20
2016-12-19T07:42:59.261Z,20
2016-12-19T07:43:29.858Z,24
2016-12-19T07:44:00.423Z,24
2016-12-19T07:44:30.999Z,24
2016-12-19T07:45:01.557Z,24
2016-12-19T07:45:32.150Z,24
2016-12-19T07:46:02.760Z,28
2016-12-19T07:46:33.349Z,24
2016-12-19T07:47:03.918Z,28
2016-12-19T07:47:34.482Z,28
2016-12-19T07:48:05.040Z,32
2016-12-19T07:48:35.606Z,28
2016-12-19T07:49:06.184Z,28
2016-12-19T07:49:36.765Z,28
2016-12-19T07:50:07.339Z,32
2016-12-19T07:50:37.954Z,32
2016-12-19T07:51:08.529Z,32
2016-12-19T07:51:39.126Z,36
2016-12-19T07:52:09.697Z,36
2016-12-19T07:52:40.257Z,36
2016-12-19T07:53:10.826Z,32
2016-12-19T07:53:41.472Z,36
2016-12-19T07:54:12.072Z,36
2016-12-19T07:54:42.666Z,36
2016-12-19T07:55:13.226Z,36
2016-12-19T07:55:43.832Z,40
2016-12-19T07:56:14.405Z,36
2016-12-19T07:56:44.983Z,40
2016-12-19T07:57:15.562Z,40
2016-12-19T07:57:46.146Z,40
2016-12-19T07:58:16.714Z,44
2016-12-19T07:58:47.258Z,44
2016-12-19T07:59:17.908Z,44
2016-12-19T07:59:48.481Z,48
2016-12-19T08:00:19.045Z,48
2016-12-19T08:00:49.606Z,48
2016-12-19T08:01:20.205Z,48
2016-12-19T08:01:50.765Z,48
2016-12-19T08:02:21.346Z,48
2016-12-19T08:02:51.911Z,52
2016-12-19T08:03:22.463Z,52
2016-12-19T08:03:53.098Z,52
2016-12-19T08:04:23.681Z,52
2016-12-19T08:04:54.221Z,56
2016-12-19T08:05:24.818Z,52
2016-12-19T08:05:55.382Z,56
2016-12-19T08:06:25.956Z,56
2016-12-19T08:06:56.577Z,60
2016-12-19T08:07:27.123Z,56
2016-12-19T08:07:57.713Z,56
2016-12-19T08:08:28.294Z,60
2016-12-19T08:08:58.876Z,56
2016-12-19T08:09:29.457Z,60
2016-12-19T08:10:00.049Z,56
2016-12-19T08:10:30.597Z,60
2016-12-19T08:11:01.199Z,60
2016-12-19T08:11:31.728Z,60
2016-12-19T08:12:02.305Z,60
2016-12-19T08:12:32.879Z,64
2016-12-19T08:13:03.439Z,64
2016-12-19T08:13:34.090Z,60
2016-12-19T08:14:04.682Z,64
2016-12-19T08:14:35.246Z,64
2016-12-19T08:15:05.853Z,68
2016-12-19T08:15:36.426Z,64
2016-12-19T08:16:07.009Z,68
2016-12-19T08:16:37.583Z,68
2016-12-19T08:17:08.165Z,68
2016-12-19T08:17:38.738Z,68
2016-12-19T08:18:09.324Z,72
2016-12-19T08:18:39.893Z,68
2016-12-19T08:19:10.466Z,72
2016-12-19T08:19:41.038Z,72
2016-12-19T08:20:11.621Z,72
2016-12-19T08:20:42.169Z,72
2016-12-19T08:21:12.811Z,72
2016-12-19T08:21:43.404Z,76
2016-12-19T08:22:13.996Z,76
2016-12-19T08:22:44.596Z,76
2016-12-19T08:23:15.175Z,80
2016-12-19T08:23:45.755Z,80
2016-12-19T08:24:16.316Z,76
2016-12-19T08:24:46.878Z,80
2016-12-19T08:25:17.404Z,80
2016-12-19T17:17:44.724Z,0
2016-12-19T17:18:15.275Z,0
2016-12-19T17:18:45.865Z,0
2016-12-19T17:19:16.433Z,0
2016-12-19T17:19:46.994Z,0
2016-12-19T17:20:17.587Z,0
2016-12-19T17:20:48.187Z,0
2016-12-19T17:21:18.766Z,0
2016-12-19T17:21:49.338Z,0
2016-12-19T17:22:19.925Z,0
2016-12-19T17:22:50.493Z,0
2016-12-19T17:23:21.088Z,0
2016-12-19T17:23:51.645Z,0
2016-12-19T17:24:22.224Z,0
2016-12-19T17:24:52.806Z,0
2016-12-19T17:25:23.370Z,0
2016-12-19T17:25:53.947Z,0
2016-12-19T17:26:24.515Z,0
2016-12-19T17:26:55.081Z,0
2016-12-19T17:27:25.704Z,0
2016-12-19T17:27:56.277Z,0
2016-12-19T17:28:35.830Z,0
2016-12-19T17:29:02.983Z,0
2016-12-19T17:29:33.582Z,0
2016-12-19T17:30:04.120Z,0
2016-12-19T17:30:34.710Z,0
2016-12-19T17:31:05.283Z,0
2016-12-19T17:31:35.862Z,0
2016-12-19T17:32:06.433Z,0
2016-12-19T17:32:37.019Z,0
2016-12-19T17:33:07.579Z,0
2016-12-19T17:33:38.148Z,0
2016-12-19T17:34:08.715Z,0
2016-12-19T17:34:39.293Z,0
2016-12-19T17:35:09.871Z,0
2016-12-19T17:35:40.456Z,0
2016-12-19T17:36:11.019Z,52
2016-12-19T17:36:41.605Z,48
2016-12-19T17:37:12.155Z,48
2016-12-19T17:37:42.746Z,48
2016-12-19T17:38:13.318Z,48
2016-12-19T17:38:43.900Z,44
2016-12-19T17:39:14.499Z,48
2016-12-19T17:39:45.075Z,48
2016-12-19T17:40:15.739Z,48
2016-12-19T17:40:46.389Z,48
2016-12-19T17:41:16.959Z,48
2016-12-19T17:41:47.523Z,48
2016-12-19T17:42:18.258Z,44
2016-12-19T17:42:48.891Z,44
2016-12-19T17:43:19.461Z,44
2016-12-19T17:43:50.043Z,44
2016-12-19T17:44:20.648Z,48
2016-12-19T17:44:51.189Z,44
2016-12-19T17:45:21.795Z,48
2016-12-19T17:45:52.361Z,44
2016-12-19T17:46:23.084Z,48
2016-12-19T17:46:53.647Z,44
2016-12-19T17:47:24.214Z,44
2016-12-19T17:47:54.798Z,44
2016-12-19T17:48:25.346Z,44
2016-12-19T17:48:55.889Z,44
2016-12-19T17:49:26.529Z,44
2016-12-19T17:49:57.084Z,48
2016-12-19T17:50:27.640Z,48
2016-12-19T17:50:58.231Z,44
2016-12-19T17:51:28.777Z,44
2016-12-19T17:51:59.428Z,44
2016-12-19T17:52:29.985Z,44
2016-12-19T17:53:00.554Z,44
2016-12-19T17:53:31.137Z,44
2016-12-19T17:54:01.703Z,44
2016-12-19T17:54:32.309Z,44
2016-12-19T17:55:02.891Z,44
2016-12-19T17:55:33.446Z,44
2016-12-19T17:56:04.010Z,44
2016-12-19T17:56:34.594Z,44
2016-12-19T17:57:05.131Z,44
2016-12-19T17:57:35.719Z,44
2016-12-19T17:58:06.278Z,44
2016-12-19T17:58:36.886Z,44
2016-12-19T17:59:07.467Z,44
2016-12-19T17:59:38.031Z,44
2016-12-19T18:00:08.606Z,44
2016-12-19T18:00:39.172Z,44
2016-12-19T18:01:09.754Z,44
2016-12-19T18:01:40.375Z,44
2016-12-19T18:02:10.954Z,44
2016-12-19T18:02:41.515Z,44
2016-12-19T18:03:12.100Z,48
2016-12-19T18:03:42.699Z,44
2016-12-19T18:04:13.302Z,44
2016-12-19T18:04:43.854Z,44
2016-12-19T18:05:14.409Z,44
2016-12-19T18:05:44.991Z,44
2016-12-19T18:06:15.543Z,44
2016-12-19T18:06:46.112Z,44
2016-12-19T18:07:16.691Z,44
2016-12-19T18:07:47.274Z,44
2016-12-19T18:08:34.382Z,44
2016-12-19T18:09:04.961Z,48
2016-12-19T18:09:35.546Z,44
2016-12-19T18:10:06.152Z,44
2016-12-19T18:10:36.741Z,48
2016-12-19T18:11:07.362Z,44
2016-12-19T18:11:37.939Z,48
2016-12-19T18:12:08.503Z,44
2016-12-19T18:12:39.144Z,32
2016-12-19T18:13:09.700Z,20
2016-12-19T18:13:40.281Z,48
2016-12-19T18:14:10.857Z,44
2016-12-19T18:14:41.417Z,44
2016-12-19T18:15:11.973Z,48
2016-12-19T18:15:42.624Z,48
2016-12-19T18:16:13.198Z,48
2016-12-19T18:16:43.780Z,48
2016-12-19T18:17:14.349Z,44
2016-12-19T18:17:44.926Z,44
2016-12-19T18:18:15.482Z,44
2016-12-19T18:18:46.047Z,44
2016-12-19T18:19:16.622Z,44